America — WDE6076 — position and weather

sailwx.info

Track history (hours):
 
Tides and Currents Weather Stations Pressure Air Temp Water Temp Dewpoint Dewpoint Depression Visibility Wind Speed Wind Dir Waves Ship Positions

America

Owner: ET Yacht, LLC, San Diego, CA. More information available from US FCC via Universal Licensing System and Coast Guard Vessel Documentation Center.

Last reported at 2017-Feb-22 01:19 UTC. Time now 2017-Feb-22 06:38 UTC.
Position N 32°43' W 117°10'.

Length 42 m; draft 3.5 m.

Type: Sailing vessel. MMSI: 367375550.

Date/timePositionNaut miles runAvg speedWind from/ knotsBaromVisibWave heightAir tempDewpointWater temp
2017-Feb-22 01:19N 32°43' W 117°10'2 0.1
2017-Feb-20 22:33N 32°43' W 117°12'6 6.2
2017-Feb-20 21:33N 32°38' W 117°16'3 3.2
2017-Feb-20 20:33N 32°35' W 117°14'6 6.0
2017-Feb-20 19:33N 32°41' W 117°14'3 0.6
2017-Feb-20 14:04N 32°43' W 117°10'0 0.0
2017-Feb-20 12:15N 32°43' W 117°10'0 0.0
2017-Feb-20 11:09N 32°43' W 117°10'0 0.0
2017-Feb-20 02:17N 32°43' W 117°10'0 0.0
2017-Feb-20 01:05N 32°43' W 117°10'0 0.0
2017-Feb-20 00:29N 32°43' W 117°10'0 0.0
2017-Feb-19 22:23N 32°43' W 117°10'0 0.0
2017-Feb-19 21:24N 32°43' W 117°10'0 0.0
2017-Feb-19 15:27N 32°43' W 117°10'0 0.0
2017-Feb-19 06:22N 32°43' W 117°10'0 0.0
2017-Feb-17 18:25N 32°43' W 117°10'0 0.0
2017-Feb-17 17:32N 32°43' W 117°10'0 0.0
2017-Feb-17 16:32N 32°43' W 117°10'0 0.0
2017-Feb-17 15:32N 32°43' W 117°10'0 0.0
2017-Feb-17 14:28N 32°43' W 117°10'0 0.0
2017-Feb-17 13:31N 32°43' W 117°10'0 0.0
2017-Feb-17 12:30N 32°43' W 117°10'0 0.0
2017-Feb-17 11:33N 32°43' W 117°10'0 0.0
2017-Feb-17 10:33N 32°43' W 117°10'0 0.0
2017-Feb-17 09:32N 32°43' W 117°10'0 0.0
2017-Feb-17 08:29N 32°43' W 117°10'0 0.0
2017-Feb-17 07:32N 32°43' W 117°10'0 0.0
2017-Feb-17 06:32N 32°43' W 117°10'0 0.0
2017-Feb-17 05:33N 32°43' W 117°10'0 0.0
2017-Feb-17 04:33N 32°43' W 117°10'0 0.0
2017-Feb-17 03:33N 32°43' W 117°10'0 0.0
2017-Feb-17 02:31N 32°43' W 117°10'0 0.0
2017-Feb-17 01:28N 32°43' W 117°10'0 0.0
2017-Feb-17 00:33N 32°43' W 117°10'0 0.0
2017-Feb-16 23:32N 32°43' W 117°10'3 3.2
2017-Feb-16 22:33N 32°42' W 117°14'4 4.1
2017-Feb-16 21:33N 32°38' W 117°16'0 0.4
2017-Feb-16 20:33N 32°38' W 117°15'5 4.7
2017-Feb-16 19:33N 32°42' W 117°13'3 2.0
2017-Feb-16 18:15N 32°43' W 117°10'0 0.0
2017-Feb-16 17:33N 32°43' W 117°10'0 0.0
2017-Feb-16 16:33N 32°43' W 117°10'0 0.0
2017-Feb-16 15:26N 32°43' W 117°10'0 0.0
2017-Feb-16 14:21N 32°43' W 117°10'0 0.0
2017-Feb-16 13:32N 32°43' W 117°10'0 0.0
2017-Feb-16 12:32N 32°43' W 117°10'0 0.0
2017-Feb-16 11:33N 32°43' W 117°10'0 0.0
2017-Feb-16 10:33N 32°43' W 117°10'0 0.0
2017-Feb-16 09:33N 32°43' W 117°10'0 0.0
2017-Feb-16 08:32N 32°43' W 117°10'0 0.0
2017-Feb-16 07:32N 32°43' W 117°10'0 0.0
2017-Feb-16 06:26N 32°43' W 117°10'0 0.0
2017-Feb-16 05:33N 32°43' W 117°10'0 0.0
2017-Feb-16 04:32N 32°43' W 117°10'0 0.0
2017-Feb-16 03:33N 32°43' W 117°10'0 0.0
2017-Feb-16 02:33N 32°43' W 117°10'0 0.0
2017-Feb-16 01:31N 32°43' W 117°10'0 0.0
2017-Feb-16 00:31N 32°43' W 117°10'0 0.0
2017-Feb-15 23:32N 32°43' W 117°10'2 1.6
2017-Feb-15 22:33N 32°43' W 117°12'6 6.2
2017-Feb-15 21:33N 32°38' W 117°16'3 2.8
2017-Feb-15 20:33N 32°41' W 117°17'3 2.9
2017-Feb-15 19:33N 32°42' W 117°14'3 2.6
2017-Feb-15 18:24N 32°43' W 117°10'0 0.0
2017-Feb-15 17:26N 32°43' W 117°10'0 0.0
2017-Feb-15 16:32N 32°43' W 117°10'0 0.0
2017-Feb-15 15:26N 32°43' W 117°10'0 0.0
2017-Feb-15 14:29N 32°43' W 117°10'0 0.0
2017-Feb-15 13:29N 32°43' W 117°10'0 0.0
2017-Feb-15 11:29N 32°43' W 117°10'0 0.0
2017-Feb-15 10:32N 32°43' W 117°10'0 0.0
2017-Feb-15 09:28N 32°43' W 117°10'0 0.0
2017-Feb-15 08:33N 32°43' W 117°10'0 0.0
2017-Feb-15 07:25N 32°43' W 117°10'0 0.0
2017-Feb-15 06:24N 32°43' W 117°10'0 0.0
2017-Feb-15 05:33N 32°43' W 117°10'0 0.0
2017-Feb-15 04:28N 32°43' W 117°10'0 0.0
2017-Feb-15 03:26N 32°43' W 117°10'0 0.0
2017-Feb-15 02:23N 32°43' W 117°10'0 0.0
2017-Feb-15 01:29N 32°43' W 117°10'0 0.0
2017-Feb-15 00:27N 32°43' W 117°10'0 0.0
2017-Feb-14 23:31N 32°43' W 117°10'0 0.0
2017-Feb-14 22:33N 32°43' W 117°10'0 0.0
2017-Feb-14 21:32N 32°43' W 117°10'0 0.0
2017-Feb-14 20:25N 32°43' W 117°10'0 0.0
2017-Feb-14 19:25N 32°43' W 117°10'0 0.0
2017-Feb-14 18:23N 32°43' W 117°10'0 0.0
2017-Feb-14 17:31N 32°43' W 117°10'0 0.0
2017-Feb-14 16:31N 32°43' W 117°10'0 0.0
2017-Feb-14 15:32N 32°43' W 117°10'0 0.0
2017-Feb-14 14:32N 32°43' W 117°10'0 0.0
2017-Feb-14 13:26N 32°43' W 117°10'0 0.0
2017-Feb-14 12:25N 32°43' W 117°10'0 0.0
2017-Feb-14 11:33N 32°43' W 117°10'0 0.0
2017-Feb-14 10:28N 32°43' W 117°10'0 0.0
2017-Feb-14 09:32N 32°43' W 117°10'0 0.0
2017-Feb-14 08:32N 32°43' W 117°10'0 0.0
2017-Feb-14 07:30N 32°43' W 117°10'0 0.0
2017-Feb-14 06:32N 32°43' W 117°10'0 0.0
2017-Feb-14 05:22N 32°43' W 117°10'0 0.0
2017-Feb-14 04:32N 32°43' W 117°10'0 0.0
2017-Feb-14 03:26N 32°43' W 117°10'0 0.0
2017-Feb-14 02:32N 32°43' W 117°10'0 0.0
2017-Feb-14 01:29N 32°43' W 117°10'0 0.0
2017-Feb-14 00:33N 32°43' W 117°10'0 0.0
2017-Feb-13 23:31N 32°43' W 117°10'3 3.4
2017-Feb-13 22:33N 32°41' W 117°14'3 2.7
2017-Feb-13 21:33N 32°40' W 117°17'3 3.2
2017-Feb-13 20:34N 32°37' W 117°16'4 4.2
2017-Feb-13 19:33N 32°41' W 117°14'4 3.7
2017-Feb-13 18:33N 32°43' W 117°10'0 0.0
2017-Feb-13 17:33N 32°43' W 117°10'0 0.0
2017-Feb-13 16:33N 32°43' W 117°10'0 0.0
2017-Feb-13 15:33N 32°43' W 117°10'0 0.0
2017-Feb-13 14:33N 32°43' W 117°10'0 0.0
2017-Feb-13 13:33N 32°43' W 117°10'0 0.0
2017-Feb-13 12:34N 32°43' W 117°10'0 0.0
2017-Feb-13 11:33N 32°43' W 117°10'0 0.0
2017-Feb-13 10:33N 32°43' W 117°10'0 0.0
2017-Feb-13 09:33N 32°43' W 117°10'0 0.0
2017-Feb-13 08:33N 32°43' W 117°10'0 0.0
2017-Feb-13 07:33N 32°43' W 117°10'0 0.0
2017-Feb-13 06:33N 32°43' W 117°10'0 0.0
2017-Feb-13 05:34N 32°43' W 117°10'0 0.0
2017-Feb-13 04:33N 32°43' W 117°10'0 0.0
2017-Feb-13 03:34N 32°43' W 117°10'0 0.0
2017-Feb-13 02:33N 32°43' W 117°10'0 0.0
2017-Feb-13 01:33N 32°43' W 117°10'0 0.0
2017-Feb-13 00:34N 32°43' W 117°10'0 0.0
2017-Feb-12 23:32N 32°43' W 117°10'2 2.3
2017-Feb-12 22:33N 32°43' W 117°13'5 5.3
2017-Feb-12 21:33N 32°38' W 117°16'0 0.4
2017-Feb-12 20:33N 32°38' W 117°17'4 4.0
2017-Feb-12 19:34N 32°41' W 117°14'3 3.0
2017-Feb-12 18:26N 32°43' W 117°10'0 0.0
2017-Feb-12 17:29N 32°43' W 117°10'0 0.0
2017-Feb-12 16:30N 32°43' W 117°10'0 0.0
2017-Feb-12 15:33N 32°43' W 117°10'0 0.0
2017-Feb-12 14:33N 32°43' W 117°10'0 0.0
2017-Feb-12 13:32N 32°43' W 117°10'0 0.0
2017-Feb-12 12:33N 32°43' W 117°10'0 0.0
2017-Feb-12 11:31N 32°43' W 117°10'0 0.0
2017-Feb-12 10:30N 32°43' W 117°10'0 0.0
2017-Feb-12 09:22N 32°43' W 117°10'0 0.0
2017-Feb-12 08:31N 32°43' W 117°10'0 0.0
2017-Feb-12 07:33N 32°43' W 117°10'0 0.0
2017-Feb-12 06:31N 32°43' W 117°10'0 0.0
2017-Feb-12 05:22N 32°43' W 117°10'0 0.0
2017-Feb-12 04:30N 32°43' W 117°10'0 0.0
2017-Feb-12 03:26N 32°43' W 117°10'0 0.0
2017-Feb-12 02:23N 32°43' W 117°10'0 0.0
2017-Feb-12 01:29N 32°43' W 117°10'  
Track history (hours):
 
Tides and Currents Weather Stations Pressure Air Temp Water Temp Dewpoint Dewpoint Depression Visibility Wind Speed Wind Dir Waves Ship Positions

America

Owner: ET Yacht, LLC, San Diego, CA. More information available from US FCC via Universal Licensing System and Coast Guard Vessel Documentation Center.

Last reported at 2017-Feb-22 01:19 UTC. Time now 2017-Feb-22 06:38 UTC.
Position N 32°43' W 117°10'.

Length 42 m; draft 3.5 m.

Type: Sailing vessel. MMSI: 367375550.

Date/timePositionNaut miles runAvg speedWind from/ knotsBaromVisibWave heightAir tempDewpointWater temp
2017-Feb-22 01:19N 32°43' W 117°10'2 0.1
2017-Feb-20 22:33N 32°43' W 117°12'6 6.2
2017-Feb-20 21:33N 32°38' W 117°16'3 3.2
2017-Feb-20 20:33N 32°35' W 117°14'6 6.0
2017-Feb-20 19:33N 32°41' W 117°14'3 0.6
2017-Feb-20 14:04N 32°43' W 117°10'0 0.0
2017-Feb-20 12:15N 32°43' W 117°10'0 0.0
2017-Feb-20 11:09N 32°43' W 117°10'0 0.0
2017-Feb-20 02:17N 32°43' W 117°10'0 0.0
2017-Feb-20 01:05N 32°43' W 117°10'0 0.0
2017-Feb-20 00:29N 32°43' W 117°10'0 0.0
2017-Feb-19 22:23N 32°43' W 117°10'0 0.0
2017-Feb-19 21:24N 32°43' W 117°10'0 0.0
2017-Feb-19 15:27N 32°43' W 117°10'0 0.0
2017-Feb-19 06:22N 32°43' W 117°10'0 0.0
2017-Feb-17 18:25N 32°43' W 117°10'0 0.0
2017-Feb-17 17:32N 32°43' W 117°10'0 0.0
2017-Feb-17 16:32N 32°43' W 117°10'0 0.0
2017-Feb-17 15:32N 32°43' W 117°10'0 0.0
2017-Feb-17 14:28N 32°43' W 117°10'0 0.0
2017-Feb-17 13:31N 32°43' W 117°10'0 0.0
2017-Feb-17 12:30N 32°43' W 117°10'0 0.0
2017-Feb-17 11:33N 32°43' W 117°10'0 0.0
2017-Feb-17 10:33N 32°43' W 117°10'0 0.0
2017-Feb-17 09:32N 32°43' W 117°10'0 0.0
2017-Feb-17 08:29N 32°43' W 117°10'0 0.0
2017-Feb-17 07:32N 32°43' W 117°10'0 0.0
2017-Feb-17 06:32N 32°43' W 117°10'0 0.0
2017-Feb-17 05:33N 32°43' W 117°10'0 0.0
2017-Feb-17 04:33N 32°43' W 117°10'0 0.0
2017-Feb-17 03:33N 32°43' W 117°10'0 0.0
2017-Feb-17 02:31N 32°43' W 117°10'0 0.0
2017-Feb-17 01:28N 32°43' W 117°10'0 0.0
2017-Feb-17 00:33N 32°43' W 117°10'0 0.0
2017-Feb-16 23:32N 32°43' W 117°10'3 3.2
2017-Feb-16 22:33N 32°42' W 117°14'4 4.1
2017-Feb-16 21:33N 32°38' W 117°16'0 0.4
2017-Feb-16 20:33N 32°38' W 117°15'5 4.7
2017-Feb-16 19:33N 32°42' W 117°13'3 2.0
2017-Feb-16 18:15N 32°43' W 117°10'0 0.0
2017-Feb-16 17:33N 32°43' W 117°10'0 0.0
2017-Feb-16 16:33N 32°43' W 117°10'0 0.0
2017-Feb-16 15:26N 32°43' W 117°10'0 0.0
2017-Feb-16 14:21N 32°43' W 117°10'0 0.0
2017-Feb-16 13:32N 32°43' W 117°10'0 0.0
2017-Feb-16 12:32N 32°43' W 117°10'0 0.0
2017-Feb-16 11:33N 32°43' W 117°10'0 0.0
2017-Feb-16 10:33N 32°43' W 117°10'0 0.0
2017-Feb-16 09:33N 32°43' W 117°10'0 0.0
2017-Feb-16 08:32N 32°43' W 117°10'0 0.0
2017-Feb-16 07:32N 32°43' W 117°10'0 0.0
2017-Feb-16 06:26N 32°43' W 117°10'0 0.0
2017-Feb-16 05:33N 32°43' W 117°10'0 0.0
2017-Feb-16 04:32N 32°43' W 117°10'0 0.0
2017-Feb-16 03:33N 32°43' W 117°10'0 0.0
2017-Feb-16 02:33N 32°43' W 117°10'0 0.0
2017-Feb-16 01:31N 32°43' W 117°10'0 0.0
2017-Feb-16 00:31N 32°43' W 117°10'0 0.0
2017-Feb-15 23:32N 32°43' W 117°10'2 1.6
2017-Feb-15 22:33N 32°43' W 117°12'6 6.2
2017-Feb-15 21:33N 32°38' W 117°16'3 2.8
2017-Feb-15 20:33N 32°41' W 117°17'3 2.9
2017-Feb-15 19:33N 32°42' W 117°14'3 2.6
2017-Feb-15 18:24N 32°43' W 117°10'0 0.0
2017-Feb-15 17:26N 32°43' W 117°10'0 0.0
2017-Feb-15 16:32N 32°43' W 117°10'0 0.0
2017-Feb-15 15:26N 32°43' W 117°10'0 0.0
2017-Feb-15 14:29N 32°43' W 117°10'0 0.0
2017-Feb-15 13:29N 32°43' W 117°10'0 0.0
2017-Feb-15 11:29N 32°43' W 117°10'0 0.0
2017-Feb-15 10:32N 32°43' W 117°10'0 0.0
2017-Feb-15 09:28N 32°43' W 117°10'0 0.0
2017-Feb-15 08:33N 32°43' W 117°10'0 0.0
2017-Feb-15 07:25N 32°43' W 117°10'0 0.0
2017-Feb-15 06:24N 32°43' W 117°10'0 0.0
2017-Feb-15 05:33N 32°43' W 117°10'0 0.0
2017-Feb-15 04:28N 32°43' W 117°10'0 0.0
2017-Feb-15 03:26N 32°43' W 117°10'0 0.0
2017-Feb-15 02:23N 32°43' W 117°10'0 0.0
2017-Feb-15 01:29N 32°43' W 117°10'0 0.0
2017-Feb-15 00:27N 32°43' W 117°10'0 0.0
2017-Feb-14 23:31N 32°43' W 117°10'0 0.0
2017-Feb-14 22:33N 32°43' W 117°10'0 0.0
2017-Feb-14 21:32N 32°43' W 117°10'0 0.0
2017-Feb-14 20:25N 32°43' W 117°10'0 0.0
2017-Feb-14 19:25N 32°43' W 117°10'0 0.0
2017-Feb-14 18:23N 32°43' W 117°10'0 0.0
2017-Feb-14 17:31N 32°43' W 117°10'0 0.0
2017-Feb-14 16:31N 32°43' W 117°10'0 0.0
2017-Feb-14 15:32N 32°43' W 117°10'0 0.0
2017-Feb-14 14:32N 32°43' W 117°10'0 0.0
2017-Feb-14 13:26N 32°43' W 117°10'0 0.0
2017-Feb-14 12:25N 32°43' W 117°10'0 0.0
2017-Feb-14 11:33N 32°43' W 117°10'0 0.0
2017-Feb-14 10:28N 32°43' W 117°10'0 0.0
2017-Feb-14 09:32N 32°43' W 117°10'0 0.0
2017-Feb-14 08:32N 32°43' W 117°10'0 0.0
2017-Feb-14 07:30N 32°43' W 117°10'0 0.0
2017-Feb-14 06:32N 32°43' W 117°10'0 0.0
2017-Feb-14 05:22N 32°43' W 117°10'0 0.0
2017-Feb-14 04:32N 32°43' W 117°10'0 0.0
2017-Feb-14 03:26N 32°43' W 117°10'0 0.0
2017-Feb-14 02:32N 32°43' W 117°10'0 0.0
2017-Feb-14 01:29N 32°43' W 117°10'0 0.0
2017-Feb-14 00:33N 32°43' W 117°10'0 0.0
2017-Feb-13 23:31N 32°43' W 117°10'3 3.4
2017-Feb-13 22:33N 32°41' W 117°14'3 2.7
2017-Feb-13 21:33N 32°40' W 117°17'3 3.2
2017-Feb-13 20:34N 32°37' W 117°16'4 4.2
2017-Feb-13 19:33N 32°41' W 117°14'4 3.7
2017-Feb-13 18:33N 32°43' W 117°10'0 0.0
2017-Feb-13 17:33N 32°43' W 117°10'0 0.0
2017-Feb-13 16:33N 32°43' W 117°10'0 0.0
2017-Feb-13 15:33N 32°43' W 117°10'0 0.0
2017-Feb-13 14:33N 32°43' W 117°10'0 0.0
2017-Feb-13 13:33N 32°43' W 117°10'0 0.0
2017-Feb-13 12:34N 32°43' W 117°10'0 0.0
2017-Feb-13 11:33N 32°43' W 117°10'0 0.0
2017-Feb-13 10:33N 32°43' W 117°10'0 0.0
2017-Feb-13 09:33N 32°43' W 117°10'0 0.0
2017-Feb-13 08:33N 32°43' W 117°10'0 0.0
2017-Feb-13 07:33N 32°43' W 117°10'0 0.0
2017-Feb-13 06:33N 32°43' W 117°10'0 0.0
2017-Feb-13 05:34N 32°43' W 117°10'0 0.0
2017-Feb-13 04:33N 32°43' W 117°10'0 0.0
2017-Feb-13 03:34N 32°43' W 117°10'0 0.0
2017-Feb-13 02:33N 32°43' W 117°10'0 0.0
2017-Feb-13 01:33N 32°43' W 117°10'0 0.0
2017-Feb-13 00:34N 32°43' W 117°10'0 0.0
2017-Feb-12 23:32N 32°43' W 117°10'2 2.3
2017-Feb-12 22:33N 32°43' W 117°13'5 5.3
2017-Feb-12 21:33N 32°38' W 117°16'0 0.4
2017-Feb-12 20:33N 32°38' W 117°17'4 4.0
2017-Feb-12 19:34N 32°41' W 117°14'3 3.0
2017-Feb-12 18:26N 32°43' W 117°10'0 0.0
2017-Feb-12 17:29N 32°43' W 117°10'0 0.0
2017-Feb-12 16:30N 32°43' W 117°10'0 0.0
2017-Feb-12 15:33N 32°43' W 117°10'0 0.0
2017-Feb-12 14:33N 32°43' W 117°10'0 0.0
2017-Feb-12 13:32N 32°43' W 117°10'0 0.0
2017-Feb-12 12:33N 32°43' W 117°10'0 0.0
2017-Feb-12 11:31N 32°43' W 117°10'0 0.0
2017-Feb-12 10:30N 32°43' W 117°10'0 0.0
2017-Feb-12 09:22N 32°43' W 117°10'0 0.0
2017-Feb-12 08:31N 32°43' W 117°10'0 0.0
2017-Feb-12 07:33N 32°43' W 117°10'0 0.0
2017-Feb-12 06:31N 32°43' W 117°10'0 0.0
2017-Feb-12 05:22N 32°43' W 117°10'0 0.0
2017-Feb-12 04:30N 32°43' W 117°10'0 0.0
2017-Feb-12 03:26N 32°43' W 117°10'0 0.0
2017-Feb-12 02:23N 32°43' W 117°10'0 0.0
2017-Feb-12 01:29N 32°43' W 117°10'  

Dump ship's entire track history